sensor_id;sensor_type;location;lat;lon;timestamp;temperature;humidity
52495;DHT22;38405;53.212;5.660;2022-11-11T00:01:05;12.30;99.90
52495;DHT22;38405;53.212;5.660;2022-11-11T00:03:31;12.30;99.90
52495;DHT22;38405;53.212;5.660;2022-11-11T00:06:09;12.30;99.90
52495;DHT22;38405;53.212;5.660;2022-11-11T00:08:35;12.30;99.90
52495;DHT22;38405;53.212;5.660;2022-11-11T00:11:09;12.30;99.90
52495;DHT22;38405;53.212;5.660;2022-11-11T00:13:36;12.30;99.90
52495;DHT22;38405;53.212;5.660;2022-11-11T00:18:32;12.30;99.90
52495;DHT22;38405;53.212;5.660;2022-11-11T00:21:16;12.30;99.90
52495;DHT22;38405;53.212;5.660;2022-11-11T00:24:01;12.40;99.90
52495;DHT22;38405;53.212;5.660;2022-11-11T00:26:45;12.30;99.90
52495;DHT22;38405;53.212;5.660;2022-11-11T00:29:10;12.40;99.90
52495;DHT22;38405;53.212;5.660;2022-11-11T00:31:36;12.30;99.90
52495;DHT22;38405;53.212;5.660;2022-11-11T00:34:22;12.30;99.90
52495;DHT22;38405;53.212;5.660;2022-11-11T00:36:47;12.30;99.90
52495;DHT22;38405;53.212;5.660;2022-11-11T00:39:13;12.30;99.90
52495;DHT22;38405;53.212;5.660;2022-11-11T00:41:38;12.30;99.90
52495;DHT22;38405;53.212;5.660;2022-11-11T00:44:04;12.30;99.90
52495;DHT22;38405;53.212;5.660;2022-11-11T00:46:30;12.20;99.90
52495;DHT22;38405;53.212;5.660;2022-11-11T00:49:14;12.30;99.90
52495;DHT22;38405;53.212;5.660;2022-11-11T00:51:58;12.30;99.90
52495;DHT22;38405;53.212;5.660;2022-11-11T00:54:23;12.20;99.90
52495;DHT22;38405;53.212;5.660;2022-11-11T00:56:49;12.20;99.90
52495;DHT22;38405;53.212;5.660;2022-11-11T00:59:14;12.40;99.90
52495;DHT22;38405;53.212;5.660;2022-11-11T01:01:40;12.20;99.90
52495;DHT22;38405;53.212;5.660;2022-11-11T01:04:06;12.20;99.90
52495;DHT22;38405;53.212;5.660;2022-11-11T01:06:31;12.20;99.90
52495;DHT22;38405;53.212;5.660;2022-11-11T01:08:57;12.20;99.90
52495;DHT22;38405;53.212;5.660;2022-11-11T01:11:23;12.20;99.90
52495;DHT22;38405;53.212;5.660;2022-11-11T01:13:49;12.20;99.90
52495;DHT22;38405;53.212;5.660;2022-11-11T01:16:20;12.10;99.90
52495;DHT22;38405;53.212;5.660;2022-11-11T01:18:47;12.10;99.90
52495;DHT22;38405;53.212;5.660;2022-11-11T01:21:19;12.10;99.90
52495;DHT22;38405;53.212;5.660;2022-11-11T01:23:45;12.00;99.90
52495;DHT22;38405;53.212;5.660;2022-11-11T01:26:17;12.10;99.90
52495;DHT22;38405;53.212;5.660;2022-11-11T01:28:43;12.10;99.90
52495;DHT22;38405;53.212;5.660;2022-11-11T01:31:13;12.10;99.90
52495;DHT22;38405;53.212;5.660;2022-11-11T01:33:39;12.50;99.90
52495;DHT22;38405;53.212;5.660;2022-11-11T01:36:14;12.10;99.90
52495;DHT22;38405;53.212;5.660;2022-11-11T01:38:40;12.10;99.90
52495;DHT22;38405;53.212;5.660;2022-11-11T01:41:09;12.10;99.90
52495;DHT22;38405;53.212;5.660;2022-11-11T01:43:54;12.20;99.90
52495;DHT22;38405;53.212;5.660;2022-11-11T01:46:33;12.20;99.90
52495;DHT22;38405;53.212;5.660;2022-11-11T01:54:52;12.30;99.90
52495;DHT22;38405;53.212;5.660;2022-11-11T01:57:27;12.30;99.90
52495;DHT22;38405;53.212;5.660;2022-11-11T02:00:02;12.30;99.90
52495;DHT22;38405;53.212;5.660;2022-11-11T02:02:56;12.50;99.90
52495;DHT22;38405;53.212;5.660;2022-11-11T02:05:23;12.30;99.90
52495;DHT22;38405;53.212;5.660;2022-11-11T02:08:27;12.30;99.90
52495;DHT22;38405;53.212;5.660;2022-11-11T02:11:03;12.40;99.90
52495;DHT22;38405;53.212;5.660;2022-11-11T02:13:30;12.40;99.90
52495;DHT22;38405;53.212;5.660;2022-11-11T02:16:16;12.40;99.90
52495;DHT22;38405;53.212;5.660;2022-11-11T02:18:42;12.40;99.90
52495;DHT22;38405;53.212;5.660;2022-11-11T02:21:13;12.40;99.90
52495;DHT22;38405;53.212;5.660;2022-11-11T02:24:07;12.50;99.90
52495;DHT22;38405;53.212;5.660;2022-11-11T02:26:35;12.50;99.90
52495;DHT22;38405;53.212;5.660;2022-11-11T02:29:03;12.50;99.90
52495;DHT22;38405;53.212;5.660;2022-11-11T02:31:32;12.70;99.90
52495;DHT22;38405;53.212;5.660;2022-11-11T02:33:58;12.50;99.90
52495;DHT22;38405;53.212;5.660;2022-11-11T02:36:24;12.50;99.90
52495;DHT22;38405;53.212;5.660;2022-11-11T02:38:50;12.50;99.90
52495;DHT22;38405;53.212;5.660;2022-11-11T02:41:16;12.50;99.90
52495;DHT22;38405;53.212;5.660;2022-11-11T02:44:00;12.50;99.90
52495;DHT22;38405;53.212;5.660;2022-11-11T02:46:26;12.50;99.90
52495;DHT22;38405;53.212;5.660;2022-11-11T02:48:51;12.50;99.90
52495;DHT22;38405;53.212;5.660;2022-11-11T02:51:17;12.50;99.90
52495;DHT22;38405;53.212;5.660;2022-11-11T02:53:43;12.60;99.90
52495;DHT22;38405;53.212;5.660;2022-11-11T02:56:08;12.60;99.90
52495;DHT22;38405;53.212;5.660;2022-11-11T02:58:34;12.60;99.90
52495;DHT22;38405;53.212;5.660;2022-11-11T03:01:00;12.60;99.90
52495;DHT22;38405;53.212;5.660;2022-11-11T03:03:25;12.60;99.90
52495;DHT22;38405;53.212;5.660;2022-11-11T03:05:51;12.60;99.90
52495;DHT22;38405;53.212;5.660;2022-11-11T03:08:16;12.60;99.90
52495;DHT22;38405;53.212;5.660;2022-11-11T03:10:42;12.60;99.90
52495;DHT22;38405;53.212;5.660;2022-11-11T03:13:07;12.60;99.90
52495;DHT22;38405;53.212;5.660;2022-11-11T03:15:33;12.50;99.90
52495;DHT22;38405;53.212;5.660;2022-11-11T03:17:59;12.50;99.90
52495;DHT22;38405;53.212;5.660;2022-11-11T03:20:25;12.40;99.90
52495;DHT22;38405;53.212;5.660;2022-11-11T03:23:12;12.50;99.90
52495;DHT22;38405;53.212;5.660;2022-11-11T03:25:40;12.40;99.90
52495;DHT22;38405;53.212;5.660;2022-11-11T03:28:14;12.30;99.90
52495;DHT22;38405;53.212;5.660;2022-11-11T03:30:41;12.30;99.90
52495;DHT22;38405;53.212;5.660;2022-11-11T03:33:08;12.30;99.90
52495;DHT22;38405;53.212;5.660;2022-11-11T03:35:33;12.30;99.90
52495;DHT22;38405;53.212;5.660;2022-11-11T03:38:00;12.30;99.90
52495;DHT22;38405;53.212;5.660;2022-11-11T03:40:54;12.20;99.90
52495;DHT22;38405;53.212;5.660;2022-11-11T03:43:22;12.20;99.90
52495;DHT22;38405;53.212;5.660;2022-11-11T03:45:49;12.20;99.90
52495;DHT22;38405;53.212;5.660;2022-11-11T03:48:15;12.10;99.90
52495;DHT22;38405;53.212;5.660;2022-11-11T03:50:41;12.10;99.90
52495;DHT22;38405;53.212;5.660;2022-11-11T03:53:07;12.10;99.90
52495;DHT22;38405;53.212;5.660;2022-11-11T03:55:33;12.00;99.90
52495;DHT22;38405;53.212;5.660;2022-11-11T03:57:59;12.00;99.90
52495;DHT22;38405;53.212;5.660;2022-11-11T04:00:26;11.90;99.90
52495;DHT22;38405;53.212;5.660;2022-11-11T04:03:02;11.90;99.90
52495;DHT22;38405;53.212;5.660;2022-11-11T04:05:46;11.90;99.90
52495;DHT22;38405;53.212;5.660;2022-11-11T04:08:26;12.00;99.90
52495;DHT22;38405;53.212;5.660;2022-11-11T04:11:14;11.90;99.90
52495;DHT22;38405;53.212;5.660;2022-11-11T04:13:42;11.90;99.90
52495;DHT22;38405;53.212;5.660;2022-11-11T04:16:27;11.80;99.90
52495;DHT22;38405;53.212;5.660;2022-11-11T04:18:53;11.80;99.90
52495;DHT22;38405;53.212;5.660;2022-11-11T04:21:37;11.80;99.90
52495;DHT22;38405;53.212;5.660;2022-11-11T04:24:17;11.70;99.90
52495;DHT22;38405;53.212;5.660;2022-11-11T04:27:08;11.70;99.90
52495;DHT22;38405;53.212;5.660;2022-11-11T04:29:34;11.70;99.90
52495;DHT22;38405;53.212;5.660;2022-11-11T04:32:00;11.70;99.90
52495;DHT22;38405;53.212;5.660;2022-11-11T04:34:52;11.70;99.90
52495;DHT22;38405;53.212;5.660;2022-11-11T04:37:19;11.70;99.90
52495;DHT22;38405;53.212;5.660;2022-11-11T04:39:46;11.70;99.90
52495;DHT22;38405;53.212;5.660;2022-11-11T04:42:32;11.80;99.90
52495;DHT22;38405;53.212;5.660;2022-11-11T04:44:59;11.70;99.90
52495;DHT22;38405;53.212;5.660;2022-11-11T04:50:19;11.70;99.90
52495;DHT22;38405;53.212;5.660;2022-11-11T04:52:44;11.70;99.90
52495;DHT22;38405;53.212;5.660;2022-11-11T04:55:10;11.70;99.90
52495;DHT22;38405;53.212;5.660;2022-11-11T04:57:54;11.70;99.90
52495;DHT22;38405;53.212;5.660;2022-11-11T05:00:20;11.70;99.90
52495;DHT22;38405;53.212;5.660;2022-11-11T05:02:46;11.60;99.90
52495;DHT22;38405;53.212;5.660;2022-11-11T05:05:30;11.60;99.90
52495;DHT22;38405;53.212;5.660;2022-11-11T05:08:16;11.60;99.90
52495;DHT22;38405;53.212;5.660;2022-11-11T05:11:00;11.50;99.90
52495;DHT22;38405;53.212;5.660;2022-11-11T05:13:26;11.50;99.90
52495;DHT22;38405;53.212;5.660;2022-11-11T05:16:17;11.40;99.90
52495;DHT22;38405;53.212;5.660;2022-11-11T05:19:02;11.40;99.90
52495;DHT22;38405;53.212;5.660;2022-11-11T05:21:46;11.30;99.90
52495;DHT22;38405;53.212;5.660;2022-11-11T05:24:12;11.20;99.90
52495;DHT22;38405;53.212;5.660;2022-11-11T05:26:56;11.20;99.90
52495;DHT22;38405;53.212;5.660;2022-11-11T05:29:21;11.10;99.90
52495;DHT22;38405;53.212;5.660;2022-11-11T05:31:47;11.10;99.90
52495;DHT22;38405;53.212;5.660;2022-11-11T05:34:13;11.10;99.90
52495;DHT22;38405;53.212;5.660;2022-11-11T05:36:38;11.10;99.90
52495;DHT22;38405;53.212;5.660;2022-11-11T05:39:04;11.10;99.90
52495;DHT22;38405;53.212;5.660;2022-11-11T05:41:29;11.20;99.90
52495;DHT22;38405;53.212;5.660;2022-11-11T05:43:55;11.10;99.90
52495;DHT22;38405;53.212;5.660;2022-11-11T05:46:20;11.20;99.90
52495;DHT22;38405;53.212;5.660;2022-11-11T05:48:46;11.30;99.90
52495;DHT22;38405;53.212;5.660;2022-11-11T05:51:30;11.30;99.90
52495;DHT22;38405;53.212;5.660;2022-11-11T05:53:56;11.20;99.90
52495;DHT22;38405;53.212;5.660;2022-11-11T05:56:22;11.30;99.90
52495;DHT22;38405;53.212;5.660;2022-11-11T05:58:48;11.30;99.90
52495;DHT22;38405;53.212;5.660;2022-11-11T06:01:14;11.30;99.90
52495;DHT22;38405;53.212;5.660;2022-11-11T06:03:39;11.30;99.90
52495;DHT22;38405;53.212;5.660;2022-11-11T06:06:05;11.20;99.90
52495;DHT22;38405;53.212;5.660;2022-11-11T06:08:31;11.20;99.90
52495;DHT22;38405;53.212;5.660;2022-11-11T06:10:56;11.30;99.90
52495;DHT22;38405;53.212;5.660;2022-11-11T06:13:23;11.20;99.90
52495;DHT22;38405;53.212;5.660;2022-11-11T06:15:48;11.20;99.90
52495;DHT22;38405;53.212;5.660;2022-11-11T06:18:14;11.10;99.90
52495;DHT22;38405;53.212;5.660;2022-11-11T06:20:39;11.10;99.90
52495;DHT22;38405;53.212;5.660;2022-11-11T06:23:05;11.10;99.90
52495;DHT22;38405;53.212;5.660;2022-11-11T06:25:32;11.10;99.90
52495;DHT22;38405;53.212;5.660;2022-11-11T06:28:17;11.20;99.90
52495;DHT22;38405;53.212;5.660;2022-11-11T06:30:43;11.20;99.90
52495;DHT22;38405;53.212;5.660;2022-11-11T06:33:09;11.20;99.90
52495;DHT22;38405;53.212;5.660;2022-11-11T06:35:36;11.20;99.90
52495;DHT22;38405;53.212;5.660;2022-11-11T06:38:04;11.20;99.90
52495;DHT22;38405;53.212;5.660;2022-11-11T06:40:31;11.30;99.90
52495;DHT22;38405;53.212;5.660;2022-11-11T06:43:00;11.30;99.90
52495;DHT22;38405;53.212;5.660;2022-11-11T06:45:28;11.60;99.90
52495;DHT22;38405;53.212;5.660;2022-11-11T06:47:53;11.30;99.90
52495;DHT22;38405;53.212;5.660;2022-11-11T06:50:19;11.30;99.90
52495;DHT22;38405;53.212;5.660;2022-11-11T06:52:45;11.30;99.90
52495;DHT22;38405;53.212;5.660;2022-11-11T06:55:11;11.30;99.90
52495;DHT22;38405;53.212;5.660;2022-11-11T06:57:37;11.30;99.90
52495;DHT22;38405;53.212;5.660;2022-11-11T07:00:04;11.30;99.90
52495;DHT22;38405;53.212;5.660;2022-11-11T07:02:30;11.30;99.90
52495;DHT22;38405;53.212;5.660;2022-11-11T07:04:56;11.40;99.90
52495;DHT22;38405;53.212;5.660;2022-11-11T07:07:21;11.40;99.90
52495;DHT22;38405;53.212;5.660;2022-11-11T07:09:47;11.30;99.90
52495;DHT22;38405;53.212;5.660;2022-11-11T07:12:13;11.30;99.90
52495;DHT22;38405;53.212;5.660;2022-11-11T07:14:38;11.30;99.90
52495;DHT22;38405;53.212;5.660;2022-11-11T07:17:04;11.30;99.90
52495;DHT22;38405;53.212;5.660;2022-11-11T07:19:30;11.40;99.90
52495;DHT22;38405;53.212;5.660;2022-11-11T07:21:55;11.30;99.90
52495;DHT22;38405;53.212;5.660;2022-11-11T07:24:21;11.40;99.90
52495;DHT22;38405;53.212;5.660;2022-11-11T07:26:47;11.30;99.90
52495;DHT22;38405;53.212;5.660;2022-11-11T07:29:12;11.30;99.90
52495;DHT22;38405;53.212;5.660;2022-11-11T07:31:40;11.30;99.90
52495;DHT22;38405;53.212;5.660;2022-11-11T07:34:06;11.30;99.90
52495;DHT22;38405;53.212;5.660;2022-11-11T07:36:31;11.30;99.90
52495;DHT22;38405;53.212;5.660;2022-11-11T07:38:57;11.30;99.90
52495;DHT22;38405;53.212;5.660;2022-11-11T07:41:23;11.30;99.90
52495;DHT22;38405;53.212;5.660;2022-11-11T07:43:48;11.40;99.90
52495;DHT22;38405;53.212;5.660;2022-11-11T07:46:14;11.30;99.90
52495;DHT22;38405;53.212;5.660;2022-11-11T07:48:40;11.40;99.90
52495;DHT22;38405;53.212;5.660;2022-11-11T07:51:05;11.40;99.90
52495;DHT22;38405;53.212;5.660;2022-11-11T07:53:31;11.30;99.90
52495;DHT22;38405;53.212;5.660;2022-11-11T07:55:56;11.40;99.90
52495;DHT22;38405;53.212;5.660;2022-11-11T07:58:22;11.50;99.90
52495;DHT22;38405;53.212;5.660;2022-11-11T08:00:50;11.40;99.90
52495;DHT22;38405;53.212;5.660;2022-11-11T08:03:16;11.50;99.90
52495;DHT22;38405;53.212;5.660;2022-11-11T08:05:42;11.40;99.90
52495;DHT22;38405;53.212;5.660;2022-11-11T08:08:08;11.60;99.90
52495;DHT22;38405;53.212;5.660;2022-11-11T08:10:34;11.40;99.90
52495;DHT22;38405;53.212;5.660;2022-11-11T08:13:00;11.40;99.90
52495;DHT22;38405;53.212;5.660;2022-11-11T08:15:45;11.40;99.90
52495;DHT22;38405;53.212;5.660;2022-11-11T08:18:10;11.50;99.90
52495;DHT22;38405;53.212;5.660;2022-11-11T08:20:36;11.40;99.90
52495;DHT22;38405;53.212;5.660;2022-11-11T08:23:02;11.50;99.90
52495;DHT22;38405;53.212;5.660;2022-11-11T08:25:35;11.50;99.90
52495;DHT22;38405;53.212;5.660;2022-11-11T08:28:03;11.50;99.90
52495;DHT22;38405;53.212;5.660;2022-11-11T08:30:29;11.50;99.90
52495;DHT22;38405;53.212;5.660;2022-11-11T08:33:00;11.60;99.90
52495;DHT22;38405;53.212;5.660;2022-11-11T08:35:26;11.60;99.90
52495;DHT22;38405;53.212;5.660;2022-11-11T08:37:52;11.60;99.90
52495;DHT22;38405;53.212;5.660;2022-11-11T08:40:18;11.60;99.90
52495;DHT22;38405;53.212;5.660;2022-11-11T08:42:44;11.60;99.90
52495;DHT22;38405;53.212;5.660;2022-11-11T08:45:10;11.60;99.90
52495;DHT22;38405;53.212;5.660;2022-11-11T08:47:36;11.50;99.90
52495;DHT22;38405;53.212;5.660;2022-11-11T08:50:04;11.50;99.90
52495;DHT22;38405;53.212;5.660;2022-11-11T08:52:29;11.50;99.90
52495;DHT22;38405;53.212;5.660;2022-11-11T08:54:55;11.60;99.90
52495;DHT22;38405;53.212;5.660;2022-11-11T08:57:21;11.50;99.90
52495;DHT22;38405;53.212;5.660;2022-11-11T08:59:46;11.50;99.90
52495;DHT22;38405;53.212;5.660;2022-11-11T09:02:13;11.50;99.90
52495;DHT22;38405;53.212;5.660;2022-11-11T09:04:39;11.50;99.90
52495;DHT22;38405;53.212;5.660;2022-11-11T09:07:09;11.70;99.90
52495;DHT22;38405;53.212;5.660;2022-11-11T09:09:35;11.50;99.90
52495;DHT22;38405;53.212;5.660;2022-11-11T09:12:01;11.60;99.90
52495;DHT22;38405;53.212;5.660;2022-11-11T09:14:27;11.50;99.90
52495;DHT22;38405;53.212;5.660;2022-11-11T09:16:52;11.60;99.90
52495;DHT22;38405;53.212;5.660;2022-11-11T09:19:18;11.50;99.90
52495;DHT22;38405;53.212;5.660;2022-11-11T09:21:44;11.50;99.90
52495;DHT22;38405;53.212;5.660;2022-11-11T09:24:09;11.50;99.90
52495;DHT22;38405;53.212;5.660;2022-11-11T09:26:35;11.60;99.90
52495;DHT22;38405;53.212;5.660;2022-11-11T09:29:01;11.60;99.90
52495;DHT22;38405;53.212;5.660;2022-11-11T09:31:26;11.60;99.90
52495;DHT22;38405;53.212;5.660;2022-11-11T09:33:52;11.80;99.90
52495;DHT22;38405;53.212;5.660;2022-11-11T09:36:18;11.60;99.90
52495;DHT22;38405;53.212;5.660;2022-11-11T09:38:44;11.70;99.90
52495;DHT22;38405;53.212;5.660;2022-11-11T09:41:20;11.60;99.90
52495;DHT22;38405;53.212;5.660;2022-11-11T09:43:57;11.70;99.90
52495;DHT22;38405;53.212;5.660;2022-11-11T09:46:38;11.70;99.90
52495;DHT22;38405;53.212;5.660;2022-11-11T09:54:51;11.70;99.90
52495;DHT22;38405;53.212;5.660;2022-11-11T09:57:40;11.70;99.90
52495;DHT22;38405;53.212;5.660;2022-11-11T10:00:17;11.80;99.90
52495;DHT22;38405;53.212;5.660;2022-11-11T10:02:56;11.80;99.90
52495;DHT22;38405;53.212;5.660;2022-11-11T10:05:29;11.80;99.90
52495;DHT22;38405;53.212;5.660;2022-11-11T10:07:59;11.90;99.90
52495;DHT22;38405;53.212;5.660;2022-11-11T10:10:41;11.80;99.90
52495;DHT22;38405;53.212;5.660;2022-11-11T10:13:33;11.90;99.90
52495;DHT22;38405;53.212;5.660;2022-11-11T10:21:35;11.90;99.90
52495;DHT22;38405;53.212;5.660;2022-11-11T10:24:05;11.90;99.90
52495;DHT22;38405;53.212;5.660;2022-11-11T10:26:38;11.90;99.90
52495;DHT22;38405;53.212;5.660;2022-11-11T10:29:13;11.90;99.90
52495;DHT22;38405;53.212;5.660;2022-11-11T10:31:41;11.80;99.90
52495;DHT22;38405;53.212;5.660;2022-11-11T10:34:11;11.90;99.90
52495;DHT22;38405;53.212;5.660;2022-11-11T10:36:44;11.90;99.90
52495;DHT22;38405;53.212;5.660;2022-11-11T10:39:14;12.00;99.90
52495;DHT22;38405;53.212;5.660;2022-11-11T10:41:46;12.00;99.90
52495;DHT22;38405;53.212;5.660;2022-11-11T10:44:21;11.90;99.90
52495;DHT22;38405;53.212;5.660;2022-11-11T10:47:00;12.00;99.90
52495;DHT22;38405;53.212;5.660;2022-11-11T10:49:36;12.00;99.90
52495;DHT22;38405;53.212;5.660;2022-11-11T10:52:19;12.00;99.90
52495;DHT22;38405;53.212;5.660;2022-11-11T10:55:01;12.00;99.90
52495;DHT22;38405;53.212;5.660;2022-11-11T10:57:36;12.00;99.90
52495;DHT22;38405;53.212;5.660;2022-11-11T11:00:08;12.00;99.90
52495;DHT22;38405;53.212;5.660;2022-11-11T11:05:21;12.00;99.90
52495;DHT22;38405;53.212;5.660;2022-11-11T11:07:54;12.10;99.90
52495;DHT22;38405;53.212;5.660;2022-11-11T11:10:27;12.40;99.90
52495;DHT22;38405;53.212;5.660;2022-11-11T11:13:12;12.10;99.90
52495;DHT22;38405;53.212;5.660;2022-11-11T11:15:42;12.10;99.90
52495;DHT22;38405;53.212;5.660;2022-11-11T11:18:15;12.00;99.90
52495;DHT22;38405;53.212;5.660;2022-11-11T11:26:05;12.00;99.90
52495;DHT22;38405;53.212;5.660;2022-11-11T11:28:32;12.00;99.90
52495;DHT22;38405;53.212;5.660;2022-11-11T11:31:06;11.90;99.90
52495;DHT22;38405;53.212;5.660;2022-11-11T11:33:53;12.00;99.90
52495;DHT22;38405;53.212;5.660;2022-11-11T11:36:19;11.90;99.90
52495;DHT22;38405;53.212;5.660;2022-11-11T11:38:47;11.90;99.90
52495;DHT22;38405;53.212;5.660;2022-11-11T11:41:15;12.00;99.90
52495;DHT22;38405;53.212;5.660;2022-11-11T11:43:41;12.00;99.90
52495;DHT22;38405;53.212;5.660;2022-11-11T11:46:37;12.00;99.90
52495;DHT22;38405;53.212;5.660;2022-11-11T11:52:20;12.10;99.90
52495;DHT22;38405;53.212;5.660;2022-11-11T11:55:00;12.10;99.90
52495;DHT22;38405;53.212;5.660;2022-11-11T12:00:23;12.10;99.90
52495;DHT22;38405;53.212;5.660;2022-11-11T12:06:46;12.10;99.90
52495;DHT22;38405;53.212;5.660;2022-11-11T12:09:04;12.10;99.90
52495;DHT22;38405;53.212;5.660;2022-11-11T12:11:38;12.10;99.90
52495;DHT22;38405;53.212;5.660;2022-11-11T12:15:11;12.10;99.90
52495;DHT22;38405;53.212;5.660;2022-11-11T12:20:31;12.10;99.90
52495;DHT22;38405;53.212;5.660;2022-11-11T12:23:19;12.10;99.90
52495;DHT22;38405;53.212;5.660;2022-11-11T12:29:00;12.20;99.90
52495;DHT22;38405;53.212;5.660;2022-11-11T12:40:24;12.30;99.90
52495;DHT22;38405;53.212;5.660;2022-11-11T12:45:45;12.30;99.90
52495;DHT22;38405;53.212;5.660;2022-11-11T12:51:20;12.40;99.90
52495;DHT22;38405;53.212;5.660;2022-11-11T12:54:19;12.40;99.90
52495;DHT22;38405;53.212;5.660;2022-11-11T12:57:45;12.40;99.90
52495;DHT22;38405;53.212;5.660;2022-11-11T13:05:50;12.40;99.90
52495;DHT22;38405;53.212;5.660;2022-11-11T13:14:22;12.30;99.90
52495;DHT22;38405;53.212;5.660;2022-11-11T13:16:59;12.40;99.90
52495;DHT22;38405;53.212;5.660;2022-11-11T13:20:18;12.30;99.90
52495;DHT22;38405;53.212;5.660;2022-11-11T13:22:31;12.30;99.90
52495;DHT22;38405;53.212;5.660;2022-11-11T13:24:57;12.30;99.90
52495;DHT22;38405;53.212;5.660;2022-11-11T13:27:43;12.30;99.90
52495;DHT22;38405;53.212;5.660;2022-11-11T13:33:04;12.20;99.90
52495;DHT22;38405;53.212;5.660;2022-11-11T13:35:48;12.20;99.90
52495;DHT22;38405;53.212;5.660;2022-11-11T13:38:34;12.20;99.90
52495;DHT22;38405;53.212;5.660;2022-11-11T13:41:10;12.20;99.90
52495;DHT22;38405;53.212;5.660;2022-11-11T13:43:47;12.20;99.90
52495;DHT22;38405;53.212;5.660;2022-11-11T13:46:42;12.20;99.90
52495;DHT22;38405;53.212;5.660;2022-11-11T13:52:22;12.20;99.90
52495;DHT22;38405;53.212;5.660;2022-11-11T13:54:52;12.20;99.90
52495;DHT22;38405;53.212;5.660;2022-11-11T13:57:23;12.10;99.90
52495;DHT22;38405;53.212;5.660;2022-11-11T14:02:43;12.10;99.90
52495;DHT22;38405;53.212;5.660;2022-11-11T14:12:57;12.10;99.90
52495;DHT22;38405;53.212;5.660;2022-11-11T14:15:44;12.10;99.90
52495;DHT22;38405;53.212;5.660;2022-11-11T14:18:35;12.10;99.90
52495;DHT22;38405;53.212;5.660;2022-11-11T14:21:01;12.20;99.90
52495;DHT22;38405;53.212;5.660;2022-11-11T14:23:41;12.10;99.90
52495;DHT22;38405;53.212;5.660;2022-11-11T14:36:25;12.00;99.90
52495;DHT22;38405;53.212;5.660;2022-11-11T14:39:02;12.40;99.90
52495;DHT22;38405;53.212;5.660;2022-11-11T14:52:40;12.00;99.90
52495;DHT22;38405;53.212;5.660;2022-11-11T14:55:18;12.00;99.90
52495;DHT22;38405;53.212;5.660;2022-11-11T15:00:22;12.00;99.90
52495;DHT22;38405;53.212;5.660;2022-11-11T15:05:19;11.90;99.90
52495;DHT22;38405;53.212;5.660;2022-11-11T15:08:09;11.90;99.90
52495;DHT22;38405;53.212;5.660;2022-11-11T15:10:57;11.90;99.90
52495;DHT22;38405;53.212;5.660;2022-11-11T15:13:46;11.90;99.90
52495;DHT22;38405;53.212;5.660;2022-11-11T15:16:50;11.90;99.90
52495;DHT22;38405;53.212;5.660;2022-11-11T15:30:59;11.80;99.90
52495;DHT22;38405;53.212;5.660;2022-11-11T15:39:15;11.80;99.90
52495;DHT22;38405;53.212;5.660;2022-11-11T15:41:42;11.70;99.90
52495;DHT22;38405;53.212;5.660;2022-11-11T15:44:31;11.70;99.90
52495;DHT22;38405;53.212;5.660;2022-11-11T15:47:00;11.70;99.90
52495;DHT22;38405;53.212;5.660;2022-11-11T15:49:46;11.70;99.90
52495;DHT22;38405;53.212;5.660;2022-11-11T15:52:27;11.70;99.90
52495;DHT22;38405;53.212;5.660;2022-11-11T15:54:54;11.60;99.90
52495;DHT22;38405;53.212;5.660;2022-11-11T15:57:33;11.60;99.90
52495;DHT22;38405;53.212;5.660;2022-11-11T16:00:03;11.60;99.90
52495;DHT22;38405;53.212;5.660;2022-11-11T16:02:43;11.60;99.90
52495;DHT22;38405;53.212;5.660;2022-11-11T16:05:17;11.70;99.90
52495;DHT22;38405;53.212;5.660;2022-11-11T16:07:45;11.60;99.90
52495;DHT22;38405;53.212;5.660;2022-11-11T16:10:18;11.60;99.90
52495;DHT22;38405;53.212;5.660;2022-11-11T16:12:52;11.60;99.90
52495;DHT22;38405;53.212;5.660;2022-11-11T16:18:04;11.60;99.90
52495;DHT22;38405;53.212;5.660;2022-11-11T16:20:43;11.60;99.90
52495;DHT22;38405;53.212;5.660;2022-11-11T16:23:14;11.60;99.90
52495;DHT22;38405;53.212;5.660;2022-11-11T16:25:41;11.50;99.90
52495;DHT22;38405;53.212;5.660;2022-11-11T16:28:10;11.70;99.90
52495;DHT22;38405;53.212;5.660;2022-11-11T16:30:37;11.50;99.90
52495;DHT22;38405;53.212;5.660;2022-11-11T16:33:04;11.50;99.90
52495;DHT22;38405;53.212;5.660;2022-11-11T16:35:38;11.40;99.90
52495;DHT22;38405;53.212;5.660;2022-11-11T16:38:04;11.40;99.90
52495;DHT22;38405;53.212;5.660;2022-11-11T16:48:42;11.10;99.90
52495;DHT22;38405;53.212;5.660;2022-11-11T16:51:12;10.90;99.90
52495;DHT22;38405;53.212;5.660;2022-11-11T16:53:45;10.80;99.90
52495;DHT22;38405;53.212;5.660;2022-11-11T16:56:33;10.70;99.90
52495;DHT22;38405;53.212;5.660;2022-11-11T16:59:10;10.60;99.90
52495;DHT22;38405;53.212;5.660;2022-11-11T17:01:45;10.50;99.90
52495;DHT22;38405;53.212;5.660;2022-11-11T17:04:11;10.40;99.90
52495;DHT22;38405;53.212;5.660;2022-11-11T17:06:53;10.40;99.90
52495;DHT22;38405;53.212;5.660;2022-11-11T17:09:38;10.30;99.90
52495;DHT22;38405;53.212;5.660;2022-11-11T17:12:05;10.30;99.90
52495;DHT22;38405;53.212;5.660;2022-11-11T17:14:36;10.30;99.90
52495;DHT22;38405;53.212;5.660;2022-11-11T17:17:04;10.60;99.90
52495;DHT22;38405;53.212;5.660;2022-11-11T17:19:31;10.30;99.90
52495;DHT22;38405;53.212;5.660;2022-11-11T17:22:10;10.30;99.90
52495;DHT22;38405;53.212;5.660;2022-11-11T17:24:36;10.40;99.90
52495;DHT22;38405;53.212;5.660;2022-11-11T17:27:03;10.40;99.90
52495;DHT22;38405;53.212;5.660;2022-11-11T17:29:29;10.50;99.90
52495;DHT22;38405;53.212;5.660;2022-11-11T17:31:55;10.50;99.90
52495;DHT22;38405;53.212;5.660;2022-11-11T17:34:20;10.60;99.90
52495;DHT22;38405;53.212;5.660;2022-11-11T17:36:46;11.00;99.90
52495;DHT22;38405;53.212;5.660;2022-11-11T17:39:11;11.10;99.90
52495;DHT22;38405;53.212;5.660;2022-11-11T17:41:37;10.70;99.90
52495;DHT22;38405;53.212;5.660;2022-11-11T17:44:03;10.80;99.90
52495;DHT22;38405;53.212;5.660;2022-11-11T17:46:28;10.80;99.90
52495;DHT22;38405;53.212;5.660;2022-11-11T17:48:55;10.90;99.90
52495;DHT22;38405;53.212;5.660;2022-11-11T17:51:22;10.90;99.90
52495;DHT22;38405;53.212;5.660;2022-11-11T17:53:49;10.90;99.90
52495;DHT22;38405;53.212;5.660;2022-11-11T17:56:15;10.90;99.90
52495;DHT22;38405;53.212;5.660;2022-11-11T17:58:40;10.90;99.90
52495;DHT22;38405;53.212;5.660;2022-11-11T18:01:11;11.00;99.90
52495;DHT22;38405;53.212;5.660;2022-11-11T18:03:39;11.00;99.90
52495;DHT22;38405;53.212;5.660;2022-11-11T18:06:06;11.20;99.90
52495;DHT22;38405;53.212;5.660;2022-11-11T18:08:31;11.00;99.90
52495;DHT22;38405;53.212;5.660;2022-11-11T18:11:05;11.30;99.90
52495;DHT22;38405;53.212;5.660;2022-11-11T18:13:33;11.10;99.90
52495;DHT22;38405;53.212;5.660;2022-11-11T18:15:59;11.10;99.90
52495;DHT22;38405;53.212;5.660;2022-11-11T18:18:25;11.10;99.90
52495;DHT22;38405;53.212;5.660;2022-11-11T18:20:52;11.10;99.90